Terminal Aerodrome Forecast
Issued by NWS

Home | Current Version | Previous Version | Text Only | Print | Product List | Glossary Off
Versions: 1 2 3 4 5 6 7 8 9 10 11 12

927
FTUS43 KUNR 052323
TAFGCC
TAF
KGCC 052323Z 0600/0624 22012KT P6SM BKN250
     FM061400 27017G27KT P6SM BKN200=

USA.gov is the U.S. government's official web portal to all federal, state and local government web resources and services.